sensor_id;sensor_type;location;lat;lon;timestamp;pressure;altitude;pressure_sealevel;temperature;humidity
77325;BME280;66387;53.440;10.390;2023-11-19T00:02:06;100300.66;;;4.58;100.00
77325;BME280;66387;53.440;10.390;2023-11-19T00:04:33;100282.66;;;4.60;100.00
77325;BME280;66387;53.440;10.390;2023-11-19T00:06:58;100279.22;;;4.59;100.00
77325;BME280;66387;53.440;10.390;2023-11-19T00:09:28;100277.53;;;4.63;100.00
77325;BME280;66387;53.440;10.390;2023-11-19T00:11:53;100262.06;;;4.57;100.00
77325;BME280;66387;53.440;10.390;2023-11-19T00:14:18;100249.22;;;4.57;100.00
77325;BME280;66387;53.440;10.390;2023-11-19T00:16:44;100241.50;;;4.57;100.00
77325;BME280;66387;53.440;10.390;2023-11-19T00:19:09;100242.38;;;4.57;100.00
77325;BME280;66387;53.440;10.390;2023-11-19T00:21:34;100241.53;;;4.60;100.00
77325;BME280;66387;53.440;10.390;2023-11-19T00:24:00;100238.09;;;4.61;100.00
77325;BME280;66387;53.440;10.390;2023-11-19T00:26:25;100228.69;;;4.61;100.00
77325;BME280;66387;53.440;10.390;2023-11-19T00:28:50;100209.00;;;4.62;100.00
77325;BME280;66387;53.440;10.390;2023-11-19T00:31:15;100196.13;;;4.63;100.00
77325;BME280;66387;53.440;10.390;2023-11-19T00:33:40;100187.56;;;4.64;100.00
77325;BME280;66387;53.440;10.390;2023-11-19T00:36:06;100190.97;;;4.63;100.00
77325;BME280;66387;53.440;10.390;2023-11-19T00:38:31;100172.13;;;4.63;100.00
77325;BME280;66387;53.440;10.390;2023-11-19T00:40:57;100172.16;;;4.66;100.00
77325;BME280;66387;53.440;10.390;2023-11-19T00:43:22;100176.41;;;4.64;100.00
77325;BME280;66387;53.440;10.390;2023-11-19T00:45:47;100164.44;;;4.69;100.00
77325;BME280;66387;53.440;10.390;2023-11-19T00:48:15;100158.44;;;4.67;100.00
77325;BME280;66387;53.440;10.390;2023-11-19T00:50:41;100153.31;;;4.68;100.00
77325;BME280;66387;53.440;10.390;2023-11-19T00:53:09;100139.59;;;4.69;100.00
77325;BME280;66387;53.440;10.390;2023-11-19T00:55:34;100147.31;;;4.68;100.00
77325;BME280;66387;53.440;10.390;2023-11-19T00:57:59;100149.03;;;4.72;100.00
77325;BME280;66387;53.440;10.390;2023-11-19T01:00:24;100139.59;;;4.74;100.00
77325;BME280;66387;53.440;10.390;2023-11-19T01:02:52;100147.31;;;4.75;100.00
77325;BME280;66387;53.440;10.390;2023-11-19T01:05:17;100141.31;;;4.70;100.00
77325;BME280;66387;53.440;10.390;2023-11-19T01:07:46;100137.03;;;4.69;100.00
77325;BME280;66387;53.440;10.390;2023-11-19T01:10:12;100123.31;;;4.67;100.00
77325;BME280;66387;53.440;10.390;2023-11-19T01:12:37;100109.63;;;4.73;100.00
77325;BME280;66387;53.440;10.390;2023-11-19T01:15:03;100090.75;;;4.72;100.00
77325;BME280;66387;53.440;10.390;2023-11-19T01:17:29;100093.31;;;4.68;100.00
77325;BME280;66387;53.440;10.390;2023-11-19T01:19:56;100091.59;;;4.68;100.00
77325;BME280;66387;53.440;10.390;2023-11-19T01:22:21;100085.59;;;4.68;100.00
77325;BME280;66387;53.440;10.390;2023-11-19T01:24:47;100086.47;;;4.70;100.00
77325;BME280;66387;53.440;10.390;2023-11-19T01:27:12;100079.59;;;4.67;100.00
77325;BME280;66387;53.440;10.390;2023-11-19T01:29:37;100077.88;;;4.71;100.00
77325;BME280;66387;53.440;10.390;2023-11-19T01:32:03;100063.31;;;4.71;100.00
77325;BME280;66387;53.440;10.390;2023-11-19T01:34:29;100057.31;;;4.71;100.00
77325;BME280;66387;53.440;10.390;2023-11-19T01:36:54;100042.78;;;4.73;100.00
77325;BME280;66387;53.440;10.390;2023-11-19T01:39:19;100035.06;;;4.73;100.00
77325;BME280;66387;53.440;10.390;2023-11-19T01:41:46;100024.75;;;4.71;100.00
77325;BME280;66387;53.440;10.390;2023-11-19T01:44:11;100013.63;;;4.74;100.00
77325;BME280;66387;53.440;10.390;2023-11-19T01:46:42;100018.78;;;4.69;100.00
77325;BME280;66387;53.440;10.390;2023-11-19T01:49:08;100016.19;;;4.74;100.00
77325;BME280;66387;53.440;10.390;2023-11-19T01:51:34;100007.59;;;4.70;100.00
77325;BME280;66387;53.440;10.390;2023-11-19T01:54:01;100008.47;;;4.71;100.00
77325;BME280;66387;53.440;10.390;2023-11-19T01:56:27;100015.34;;;4.72;100.00
77325;BME280;66387;53.440;10.390;2023-11-19T01:58:54;100017.91;;;4.70;100.00
77325;BME280;66387;53.440;10.390;2023-11-19T02:01:20;99993.91;;;4.74;100.00
77325;BME280;66387;53.440;10.390;2023-11-19T02:03:45;99993.03;;;4.74;100.00
77325;BME280;66387;53.440;10.390;2023-11-19T02:06:12;99996.50;;;4.70;100.00
77325;BME280;66387;53.440;10.390;2023-11-19T02:08:37;99990.47;;;4.71;100.00
77325;BME280;66387;53.440;10.390;2023-11-19T02:11:04;99977.63;;;4.74;100.00
77325;BME280;66387;53.440;10.390;2023-11-19T02:13:31;99957.91;;;4.71;100.00
77325;BME280;66387;53.440;10.390;2023-11-19T02:15:57;99957.06;;;4.71;100.00
77325;BME280;66387;53.440;10.390;2023-11-19T02:18:24;99953.63;;;4.69;100.00
77325;BME280;66387;53.440;10.390;2023-11-19T02:20:58;99950.22;;;4.70;100.00
77325;BME280;66387;53.440;10.390;2023-11-19T02:23:27;99941.63;;;4.74;100.00
77325;BME280;66387;53.440;10.390;2023-11-19T02:28:51;99934.78;;;4.74;100.00
77325;BME280;66387;53.440;10.390;2023-11-19T02:31:17;99935.66;;;4.76;100.00
77325;BME280;66387;53.440;10.390;2023-11-19T02:33:44;99930.47;;;4.78;100.00
77325;BME280;66387;53.440;10.390;2023-11-19T02:36:09;99924.47;;;4.77;100.00
77325;BME280;66387;53.440;10.390;2023-11-19T02:38:35;99921.09;;;4.77;100.00
77325;BME280;66387;53.440;10.390;2023-11-19T02:41:04;99916.78;;;4.80;100.00
77325;BME280;66387;53.440;10.390;2023-11-19T02:43:31;99899.63;;;4.79;100.00
77325;BME280;66387;53.440;10.390;2023-11-19T02:45:59;99898.78;;;4.83;100.00
77325;BME280;66387;53.440;10.390;2023-11-19T02:48:25;99890.22;;;4.84;100.00
77325;BME280;66387;53.440;10.390;2023-11-19T02:50:51;99870.47;;;4.86;100.00
77325;BME280;66387;53.440;10.390;2023-11-19T02:53:17;99869.63;;;4.90;100.00
77325;BME280;66387;53.440;10.390;2023-11-19T02:55:43;99860.16;;;4.92;100.00
77325;BME280;66387;53.440;10.390;2023-11-19T02:58:13;99848.19;;;4.90;100.00
77325;BME280;66387;53.440;10.390;2023-11-19T03:00:45;99844.75;;;4.89;100.00
77325;BME280;66387;53.440;10.390;2023-11-19T03:03:17;99843.88;;;4.92;100.00
77325;BME280;66387;53.440;10.390;2023-11-19T03:05:46;99829.31;;;4.95;100.00
77325;BME280;66387;53.440;10.390;2023-11-19T03:08:12;99825.00;;;4.96;100.00
77325;BME280;66387;53.440;10.390;2023-11-19T03:10:37;99825.03;;;4.93;100.00
77325;BME280;66387;53.440;10.390;2023-11-19T03:13:02;99810.44;;;4.97;100.00
77325;BME280;66387;53.440;10.390;2023-11-19T03:15:28;99807.88;;;4.97;100.00
77325;BME280;66387;53.440;10.390;2023-11-19T03:17:53;99803.56;;;5.00;100.00
77325;BME280;66387;53.440;10.390;2023-11-19T03:20:19;99802.72;;;5.01;100.00
77325;BME280;66387;53.440;10.390;2023-11-19T03:22:46;99806.13;;;5.03;100.00
77325;BME280;66387;53.440;10.390;2023-11-19T03:25:11;99806.16;;;5.06;100.00
77325;BME280;66387;53.440;10.390;2023-11-19T03:27:39;99790.69;;;5.08;100.00
77325;BME280;66387;53.440;10.390;2023-11-19T03:30:07;99782.97;;;5.09;100.00
77325;BME280;66387;53.440;10.390;2023-11-19T03:32:34;99777.81;;;5.12;100.00
77325;BME280;66387;53.440;10.390;2023-11-19T03:35:01;99757.19;;;5.14;100.00
77325;BME280;66387;53.440;10.390;2023-11-19T03:37:26;99768.34;;;5.14;100.00
77325;BME280;66387;53.440;10.390;2023-11-19T03:39:53;99776.91;;;5.18;100.00
77325;BME280;66387;53.440;10.390;2023-11-19T03:42:19;99763.22;;;5.14;100.00
77325;BME280;66387;53.440;10.390;2023-11-19T03:44:45;99769.19;;;5.21;100.00
77325;BME280;66387;53.440;10.390;2023-11-19T03:47:11;99759.72;;;5.27;100.00
77325;BME280;66387;53.440;10.390;2023-11-19T03:49:36;99747.69;;;5.34;100.00
77325;BME280;66387;53.440;10.390;2023-11-19T03:52:01;99733.91;;;5.41;100.00
77325;BME280;66387;53.440;10.390;2023-11-19T03:54:27;99737.28;;;5.48;100.00
77325;BME280;66387;53.440;10.390;2023-11-19T03:56:52;99729.53;;;5.54;100.00
77325;BME280;66387;53.440;10.390;2023-11-19T03:59:18;99732.13;;;5.54;100.00
77325;BME280;66387;53.440;10.390;2023-11-19T04:01:45;99734.66;;;5.57;100.00
77325;BME280;66387;53.440;10.390;2023-11-19T04:04:10;99732.09;;;5.57;100.00
77325;BME280;66387;53.440;10.390;2023-11-19T04:06:36;99732.94;;;5.60;100.00
77325;BME280;66387;53.440;10.390;2023-11-19T04:09:01;99717.47;;;5.59;100.00
77325;BME280;66387;53.440;10.390;2023-11-19T04:11:26;99714.06;;;5.57;100.00
77325;BME280;66387;53.440;10.390;2023-11-19T04:13:51;99725.22;;;5.56;100.00
77325;BME280;66387;53.440;10.390;2023-11-19T04:16:17;99722.63;;;5.59;100.00
77325;BME280;66387;53.440;10.390;2023-11-19T04:18:42;99714.94;;;5.57;100.00
77325;BME280;66387;53.440;10.390;2023-11-19T04:21:07;99720.06;;;5.60;100.00
77325;BME280;66387;53.440;10.390;2023-11-19T04:23:33;99711.50;;;5.57;100.00
77325;BME280;66387;53.440;10.390;2023-11-19T04:26:02;99714.94;;;5.57;100.00
77325;BME280;66387;53.440;10.390;2023-11-19T04:28:27;99713.22;;;5.55;100.00
77325;BME280;66387;53.440;10.390;2023-11-19T04:30:52;99704.63;;;5.56;100.00
77325;BME280;66387;53.440;10.390;2023-11-19T04:33:18;99698.63;;;5.57;100.00
77325;BME280;66387;53.440;10.390;2023-11-19T04:35:43;99694.31;;;5.60;100.00
77325;BME280;66387;53.440;10.390;2023-11-19T04:38:08;99683.97;;;5.62;100.00
77325;BME280;66387;53.440;10.390;2023-11-19T04:40:33;99685.66;;;5.66;100.00
77325;BME280;66387;53.440;10.390;2023-11-19T04:42:59;99682.19;;;5.70;100.00
77325;BME280;66387;53.440;10.390;2023-11-19T04:45:24;99671.91;;;5.70;100.00
77325;BME280;66387;53.440;10.390;2023-11-19T04:47:49;99678.78;;;5.71;100.00
77325;BME280;66387;53.440;10.390;2023-11-19T04:50:14;99676.13;;;5.78;100.00
77325;BME280;66387;53.440;10.390;2023-11-19T04:52:40;99676.97;;;5.82;100.00
77325;BME280;66387;53.440;10.390;2023-11-19T04:55:06;99674.38;;;5.86;100.00
77325;BME280;66387;53.440;10.390;2023-11-19T04:57:31;99667.47;;;5.90;100.00
77325;BME280;66387;53.440;10.390;2023-11-19T04:59:57;99668.28;;;5.95;100.00
77325;BME280;66387;53.440;10.390;2023-11-19T05:02:23;99672.53;;;6.01;100.00
77325;BME280;66387;53.440;10.390;2023-11-19T05:04:48;99668.19;;;6.04;100.00
77325;BME280;66387;53.440;10.390;2023-11-19T05:07:14;99668.16;;;6.07;100.00
77325;BME280;66387;53.440;10.390;2023-11-19T05:09:39;99662.94;;;6.13;100.00
77325;BME280;66387;53.440;10.390;2023-11-19T05:12:05;99658.59;;;6.18;100.00
77325;BME280;66387;53.440;10.390;2023-11-19T05:14:30;99649.06;;;6.23;100.00
77325;BME280;66387;53.440;10.390;2023-11-19T05:16:55;99648.16;;;6.29;100.00
77325;BME280;66387;53.440;10.390;2023-11-19T05:19:20;99648.09;;;6.35;100.00
77325;BME280;66387;53.440;10.390;2023-11-19T05:21:46;99645.47;;;6.39;100.00
77325;BME280;66387;53.440;10.390;2023-11-19T05:24:11;99635.06;;;6.46;100.00
77325;BME280;66387;53.440;10.390;2023-11-19T05:26:39;99640.19;;;6.50;100.00
77325;BME280;66387;53.440;10.390;2023-11-19T05:29:04;99635.69;;;6.66;100.00
77325;BME280;66387;53.440;10.390;2023-11-19T05:31:29;99637.25;;;6.77;100.00
77325;BME280;66387;53.440;10.390;2023-11-19T05:33:55;99628.56;;;6.81;100.00
77325;BME280;66387;53.440;10.390;2023-11-19T05:36:20;99635.41;;;6.87;100.00
77325;BME280;66387;53.440;10.390;2023-11-19T05:38:45;99637.88;;;6.95;100.00
77325;BME280;66387;53.440;10.390;2023-11-19T05:41:11;99624.06;;;6.97;100.00
77325;BME280;66387;53.440;10.390;2023-11-19T05:43:36;99626.59;;;7.02;100.00
77325;BME280;66387;53.440;10.390;2023-11-19T05:46:02;99627.41;;;7.05;100.00
77325;BME280;66387;53.440;10.390;2023-11-19T05:48:28;99622.06;;;7.16;100.00
77325;BME280;66387;53.440;10.390;2023-11-19T05:50:54;99612.56;;;7.19;100.00
77325;BME280;66387;53.440;10.390;2023-11-19T05:53:20;99621.91;;;7.26;100.00
77325;BME280;66387;53.440;10.390;2023-11-19T05:55:45;99622.69;;;7.31;100.00
77325;BME280;66387;53.440;10.390;2023-11-19T05:58:24;99620.88;;;7.36;100.00
77325;BME280;66387;53.440;10.390;2023-11-19T06:00:51;99616.56;;;7.38;100.00
77325;BME280;66387;53.440;10.390;2023-11-19T06:03:16;99617.31;;;7.45;100.00
77325;BME280;66387;53.440;10.390;2023-11-19T06:05:44;99616.38;;;7.49;100.00
77325;BME280;66387;53.440;10.390;2023-11-19T06:08:11;99617.13;;;7.54;100.00
77325;BME280;66387;53.440;10.390;2023-11-19T06:10:39;99625.69;;;7.58;100.00
77325;BME280;66387;53.440;10.390;2023-11-19T06:13:04;99629.13;;;7.58;100.00
77325;BME280;66387;53.440;10.390;2023-11-19T06:15:30;99629.91;;;7.63;100.00
77325;BME280;66387;53.440;10.390;2023-11-19T06:17:55;99623.03;;;7.64;100.00
77325;BME280;66387;53.440;10.390;2023-11-19T06:20:22;99629.72;;;7.74;100.00
77325;BME280;66387;53.440;10.390;2023-11-19T06:22:47;99629.66;;;7.78;100.00
77325;BME280;66387;53.440;10.390;2023-11-19T06:25:13;99632.09;;;7.86;100.00
77325;BME280;66387;53.440;10.390;2023-11-19T06:27:43;99624.28;;;7.89;100.00
77325;BME280;66387;53.440;10.390;2023-11-19T06:30:08;99624.28;;;7.89;100.00
77325;BME280;66387;53.440;10.390;2023-11-19T06:32:34;99623.31;;;7.95;100.00
77325;BME280;66387;53.440;10.390;2023-11-19T06:35:00;99621.56;;;7.97;100.00
77325;BME280;66387;53.440;10.390;2023-11-19T06:37:25;99629.19;;;8.04;100.00
77325;BME280;66387;53.440;10.390;2023-11-19T06:39:50;99622.09;;;8.14;100.00
77325;BME280;66387;53.440;10.390;2023-11-19T06:42:15;99628.91;;;8.19;100.00
77325;BME280;66387;53.440;10.390;2023-11-19T06:44:41;99629.66;;;8.24;100.00
77325;BME280;66387;53.440;10.390;2023-11-19T06:47:06;99639.13;;;8.25;100.00
77325;BME280;66387;53.440;10.390;2023-11-19T06:49:31;99635.63;;;8.29;100.00
77325;BME280;66387;53.440;10.390;2023-11-19T06:51:56;99627.00;;;8.30;100.00
77325;BME280;66387;53.440;10.390;2023-11-19T06:54:22;99639.84;;;8.33;100.00
77325;BME280;66387;53.440;10.390;2023-11-19T06:56:48;99643.97;;;8.44;100.00
77325;BME280;66387;53.440;10.390;2023-11-19T06:59:13;99639.56;;;8.49;100.00
77325;BME280;66387;53.440;10.390;2023-11-19T07:01:39;99633.47;;;8.51;100.00
77325;BME280;66387;53.440;10.390;2023-11-19T07:04:04;99627.34;;;8.55;100.00
77325;BME280;66387;53.440;10.390;2023-11-19T07:06:34;99639.38;;;8.56;100.00
77325;BME280;66387;53.440;10.390;2023-11-19T07:09:01;99640.97;;;8.63;100.00
77325;BME280;66387;53.440;10.390;2023-11-19T07:11:35;99641.69;;;8.70;100.00
77325;BME280;66387;53.440;10.390;2023-11-19T07:14:00;99638.97;;;8.76;100.00
77325;BME280;66387;53.440;10.390;2023-11-19T07:16:25;99639.69;;;8.82;100.00
77325;BME280;66387;53.440;10.390;2023-11-19T07:18:51;99639.56;;;8.89;100.00
77325;BME280;66387;53.440;10.390;2023-11-19T07:21:16;99634.19;;;8.96;100.00
77325;BME280;66387;53.440;10.390;2023-11-19T07:23:41;99627.13;;;9.04;100.00
77325;BME280;66387;53.440;10.390;2023-11-19T07:26:06;99637.97;;;9.21;100.00
77325;BME280;66387;53.440;10.390;2023-11-19T07:28:33;99642.84;;;9.33;100.00
77325;BME280;66387;53.440;10.390;2023-11-19T07:30:58;99627.22;;;9.36;100.00
77325;BME280;66387;53.440;10.390;2023-11-19T07:33:24;99641.59;;;9.50;100.00
77325;BME280;66387;53.440;10.390;2023-11-19T07:35:50;99642.41;;;9.52;100.00
77325;BME280;66387;53.440;10.390;2023-11-19T07:38:16;99643.16;;;9.57;100.00
77325;BME280;66387;53.440;10.390;2023-11-19T07:40:41;99636.03;;;9.65;100.00
77325;BME280;66387;53.440;10.390;2023-11-19T07:43:06;99635.84;;;9.72;100.00
77325;BME280;66387;53.440;10.390;2023-11-19T07:45:32;99642.91;;;9.66;100.00
77325;BME280;66387;53.440;10.390;2023-11-19T07:47:57;99638.63;;;9.65;100.00
77325;BME280;66387;53.440;10.390;2023-11-19T07:50:23;99638.56;;;9.68;100.00
77325;BME280;66387;53.440;10.390;2023-11-19T07:52:48;99635.00;;;9.72;100.00
77325;BME280;66387;53.440;10.390;2023-11-19T07:55:13;99654.81;;;9.73;100.00
77325;BME280;66387;53.440;10.390;2023-11-19T07:57:38;99643.41;;;9.80;100.00
77325;BME280;66387;53.440;10.390;2023-11-19T08:00:04;99649.50;;;9.79;100.00
77325;BME280;66387;53.440;10.390;2023-11-19T08:02:30;99654.63;;;9.80;100.00
77325;BME280;66387;53.440;10.390;2023-11-19T08:04:55;99654.59;;;9.83;100.00
77325;BME280;66387;53.440;10.390;2023-11-19T08:07:21;99651.06;;;9.86;100.00
77325;BME280;66387;53.440;10.390;2023-11-19T08:09:47;99649.16;;;9.91;100.00
77325;BME280;66387;53.440;10.390;2023-11-19T08:12:12;99650.00;;;9.93;100.00
77325;BME280;66387;53.440;10.390;2023-11-19T08:14:39;99645.53;;;9.98;100.00
77325;BME280;66387;53.440;10.390;2023-11-19T08:17:04;99658.44;;;10.01;100.00
77325;BME280;66387;53.440;10.390;2023-11-19T08:19:30;99655.78;;;10.03;100.00
77325;BME280;66387;53.440;10.390;2023-11-19T08:21:55;99670.50;;;10.02;100.00
77325;BME280;66387;53.440;10.390;2023-11-19T08:24:20;99673.09;;;10.02;100.00
77325;BME280;66387;53.440;10.390;2023-11-19T08:26:46;99673.06;;;10.04;100.00
77325;BME280;66387;53.440;10.390;2023-11-19T08:29:11;99660.94;;;10.04;100.00
77325;BME280;66387;53.440;10.390;2023-11-19T08:31:36;99671.31;;;10.04;100.00
77325;BME280;66387;53.440;10.390;2023-11-19T08:34:01;99673.91;;;10.04;100.00
77325;BME280;66387;53.440;10.390;2023-11-19T08:36:27;99679.00;;;10.07;100.00
77325;BME280;66387;53.440;10.390;2023-11-19T08:38:53;99671.22;;;10.09;100.00
77325;BME280;66387;53.440;10.390;2023-11-19T08:41:18;99679.97;;;10.03;100.00
77325;BME280;66387;53.440;10.390;2023-11-19T08:43:44;99684.28;;;10.04;100.00
77325;BME280;66387;53.440;10.390;2023-11-19T08:46:10;99673.03;;;10.05;100.00
77325;BME280;66387;53.440;10.390;2023-11-19T08:48:36;99666.03;;;10.07;100.00
77325;BME280;66387;53.440;10.390;2023-11-19T08:51:01;99662.47;;;10.11;100.00
77325;BME280;66387;53.440;10.390;2023-11-19T08:53:26;99677.19;;;10.11;100.00
77325;BME280;66387;53.440;10.390;2023-11-19T08:55:51;99680.59;;;10.14;100.00
77325;BME280;66387;53.440;10.390;2023-11-19T08:58:17;99682.28;;;10.14;100.00
77325;BME280;66387;53.440;10.390;2023-11-19T09:00:43;99681.38;;;10.16;100.00
77325;BME280;66387;53.440;10.390;2023-11-19T09:03:08;99682.13;;;10.21;100.00
77325;BME280;66387;53.440;10.390;2023-11-19T09:05:34;99677.75;;;10.23;100.00
77325;BME280;66387;53.440;10.390;2023-11-19T09:07:59;99677.63;;;10.28;100.00
77325;BME280;66387;53.440;10.390;2023-11-19T09:10:25;99681.91;;;10.30;100.00
77325;BME280;66387;53.440;10.390;2023-11-19T09:12:50;99687.78;;;10.36;100.00
77325;BME280;66387;53.440;10.390;2023-11-19T09:15:15;99692.66;;;10.48;100.00
77325;BME280;66387;53.440;10.390;2023-11-19T09:17:40;99695.72;;;10.62;100.00
77325;BME280;66387;53.440;10.390;2023-11-19T09:20:06;99693.75;;;10.70;100.00
77325;BME280;66387;53.440;10.390;2023-11-19T09:22:32;99699.72;;;10.73;100.00
77325;BME280;66387;53.440;10.390;2023-11-19T09:24:58;99693.72;;;10.71;100.00
77325;BME280;66387;53.440;10.390;2023-11-19T09:27:25;99707.50;;;10.73;100.00
77325;BME280;66387;53.440;10.390;2023-11-19T09:29:51;99695.28;;;10.77;100.00
77325;BME280;66387;53.440;10.390;2023-11-19T09:32:22;99702.19;;;10.78;100.00
77325;BME280;66387;53.440;10.390;2023-11-19T09:34:47;99698.88;;;10.73;100.00
77325;BME280;66387;53.440;10.390;2023-11-19T09:37:12;99707.53;;;10.72;100.00
77325;BME280;66387;53.440;10.390;2023-11-19T09:39:37;99698.22;;;10.65;100.00
77325;BME280;66387;53.440;10.390;2023-11-19T09:42:03;99707.84;;;10.61;100.00
77325;BME280;66387;53.440;10.390;2023-11-19T09:44:28;99697.53;;;10.60;100.00
77325;BME280;66387;53.440;10.390;2023-11-19T09:46:54;99707.94;;;10.58;100.00
77325;BME280;66387;53.440;10.390;2023-11-19T09:49:21;99709.75;;;10.55;100.00
77325;BME280;66387;53.440;10.390;2023-11-19T09:51:50;99702.84;;;10.54;100.00
77325;BME280;66387;53.440;10.390;2023-11-19T09:54:16;99698.44;;;10.57;100.00
77325;BME280;66387;53.440;10.390;2023-11-19T09:56:42;99703.53;;;10.60;100.00
77325;BME280;66387;53.440;10.390;2023-11-19T09:59:08;99705.91;;;10.68;100.00
77325;BME280;66387;53.440;10.390;2023-11-19T10:01:36;99713.47;;;10.77;100.00
77325;BME280;66387;53.440;10.390;2023-11-19T10:04:02;99706.44;;;10.80;100.00
77325;BME280;66387;53.440;10.390;2023-11-19T10:06:27;99705.47;;;10.85;100.00
77325;BME280;66387;53.440;10.390;2023-11-19T10:08:53;99698.59;;;10.82;100.00
77325;BME280;66387;53.440;10.390;2023-11-19T10:11:18;99694.16;;;10.86;100.00
77325;BME280;66387;53.440;10.390;2023-11-19T10:13:43;99692.50;;;10.83;100.00
77325;BME280;66387;53.440;10.390;2023-11-19T10:16:12;99693.28;;;10.87;100.00
77325;BME280;66387;53.440;10.390;2023-11-19T10:18:45;99698.25;;;10.94;100.00
77325;BME280;66387;53.440;10.390;2023-11-19T10:21:14;99691.72;;;11.10;100.00
77325;BME280;66387;53.440;10.390;2023-11-19T10:23:49;99685.31;;;11.48;100.00
77325;BME280;66387;53.440;10.390;2023-11-19T10:26:16;99687.41;;;11.37;100.00
77325;BME280;66387;53.440;10.390;2023-11-19T10:28:41;99691.06;;;11.31;100.00
77325;BME280;66387;53.440;10.390;2023-11-19T10:31:09;99692.25;;;11.21;100.00
77325;BME280;66387;53.440;10.390;2023-11-19T10:33:34;99689.03;;;11.13;100.00
77325;BME280;66387;53.440;10.390;2023-11-19T10:35:59;99690.75;;;11.13;100.00
77325;BME280;66387;53.440;10.390;2023-11-19T10:38:25;99687.38;;;11.11;100.00
77325;BME280;66387;53.440;10.390;2023-11-19T10:40:51;99691.00;;;11.05;100.00
77325;BME280;66387;53.440;10.390;2023-11-19T10:43:17;99704.09;;;11.01;100.00
77325;BME280;66387;53.440;10.390;2023-11-19T10:45:43;99706.03;;;10.94;100.00
77325;BME280;66387;53.440;10.390;2023-11-19T10:48:08;99701.13;;;10.85;100.00
77325;BME280;66387;53.440;10.390;2023-11-19T10:50:34;99703.97;;;10.76;100.00
77325;BME280;66387;53.440;10.390;2023-11-19T10:53:01;99698.97;;;10.70;100.00
77325;BME280;66387;53.440;10.390;2023-11-19T10:55:33;99710.34;;;10.64;100.00
77325;BME280;66387;53.440;10.390;2023-11-19T10:58:02;99702.63;;;10.63;100.00
77325;BME280;66387;53.440;10.390;2023-11-19T11:00:29;99706.91;;;10.64;100.00
77325;BME280;66387;53.440;10.390;2023-11-19T11:03:00;99713.91;;;10.60;100.00
77325;BME280;66387;53.440;10.390;2023-11-19T11:05:26;99702.72;;;10.60;100.00
77325;BME280;66387;53.440;10.390;2023-11-19T11:07:52;99717.47;;;10.58;100.00
77325;BME280;66387;53.440;10.390;2023-11-19T11:10:21;99711.50;;;10.54;100.00
77325;BME280;66387;53.440;10.390;2023-11-19T11:12:52;99706.44;;;10.50;100.00
77325;BME280;66387;53.440;10.390;2023-11-19T11:15:22;99709.88;;;10.50;100.00
77325;BME280;66387;53.440;10.390;2023-11-19T11:17:50;99698.84;;;10.42;100.00
77325;BME280;66387;53.440;10.390;2023-11-19T11:20:19;99708.47;;;10.39;100.00
77325;BME280;66387;53.440;10.390;2023-11-19T11:23:06;99718.16;;;10.32;100.00
77325;BME280;66387;53.440;10.390;2023-11-19T11:25:58;99722.56;;;10.28;100.00
77325;BME280;66387;53.440;10.390;2023-11-19T11:28:36;99709.69;;;10.25;100.00
77325;BME280;66387;53.440;10.390;2023-11-19T11:31:13;99716.63;;;10.25;100.00
77325;BME280;66387;53.440;10.390;2023-11-19T11:36:56;99721.69;;;10.29;100.00
77325;BME280;66387;53.440;10.390;2023-11-19T11:39:24;99716.50;;;10.29;100.00
77325;BME280;66387;53.440;10.390;2023-11-19T11:50:18;99718.03;;;10.37;100.00
77325;BME280;66387;53.440;10.390;2023-11-19T11:55:28;99717.06;;;10.41;100.00
77325;BME280;66387;53.440;10.390;2023-11-19T11:57:55;99718.69;;;10.45;100.00
77325;BME280;66387;53.440;10.390;2023-11-19T12:00:42;99718.50;;;10.51;100.00
77325;BME280;66387;53.440;10.390;2023-11-19T12:03:08;99720.13;;;10.55;100.00
77325;BME280;66387;53.440;10.390;2023-11-19T12:05:44;99716.47;;;10.62;100.00
77325;BME280;66387;53.440;10.390;2023-11-19T12:08:11;99720.59;;;10.70;100.00
77325;BME280;66387;53.440;10.390;2023-11-19T12:10:43;99720.72;;;10.95;100.00
77325;BME280;66387;53.440;10.390;2023-11-19T12:13:09;99718.13;;;11.24;100.00
77325;BME280;66387;53.440;10.390;2023-11-19T12:18:25;99713.28;;;11.12;100.00
77325;BME280;66387;53.440;10.390;2023-11-19T12:20:51;99711.75;;;11.07;100.00
77325;BME280;66387;53.440;10.390;2023-11-19T12:23:17;99713.47;;;11.06;100.00
77325;BME280;66387;53.440;10.390;2023-11-19T12:25:42;99713.56;;;11.03;100.00
77325;BME280;66387;53.440;10.390;2023-11-19T12:28:13;99713.63;;;11.00;100.00
77325;BME280;66387;53.440;10.390;2023-11-19T12:30:39;99713.72;;;10.97;100.00
77325;BME280;66387;53.440;10.390;2023-11-19T12:33:11;99705.91;;;10.99;100.00
77325;BME280;66387;53.440;10.390;2023-11-19T12:35:40;99696.19;;;11.05;100.00
77325;BME280;66387;53.440;10.390;2023-11-19T12:38:05;99706.59;;;11.33;100.00
77325;BME280;66387;53.440;10.390;2023-11-19T12:40:31;99697.78;;;11.39;100.00
77325;BME280;66387;53.440;10.390;2023-11-19T12:42:57;99701.34;;;11.35;100.00
77325;BME280;66387;53.440;10.390;2023-11-19T12:45:22;99694.78;;;11.51;100.00
77325;BME280;66387;53.440;10.390;2023-11-19T12:47:49;99695.13;;;11.66;100.00
77325;BME280;66387;53.440;10.390;2023-11-19T12:50:15;99694.13;;;11.72;100.00
77325;BME280;66387;53.440;10.390;2023-11-19T12:52:42;99703.66;;;11.73;100.00
77325;BME280;66387;53.440;10.390;2023-11-19T12:55:29;99702.25;;;12.14;100.00
77325;BME280;66387;53.440;10.390;2023-11-19T12:57:55;99701.94;;;12.48;100.00
77325;BME280;66387;53.440;10.390;2023-11-19T13:00:22;99706.78;;;12.58;100.00
77325;BME280;66387;53.440;10.390;2023-11-19T13:02:52;99703.94;;;12.41;100.00